createdAt,value
2023-04-11T00:02:19.966Z,9.64
2023-04-11T00:07:23.954Z,9.54
2023-04-11T00:12:25.730Z,9.40
2023-04-11T00:17:32.210Z,9.45
2023-04-11T00:22:36.750Z,9.56
2023-04-11T00:27:38.668Z,9.57
2023-04-11T00:32:45.983Z,9.60
2023-04-11T00:37:56.029Z,9.62
2023-04-11T00:42:57.733Z,9.63
2023-04-11T00:47:59.706Z,9.66
2023-04-11T00:53:03.791Z,9.63
2023-04-11T00:58:08.580Z,8.39
2023-04-11T01:03:13.421Z,8.03
2023-04-11T01:08:18.750Z,7.68
2023-04-11T01:13:25.186Z,7.51
2023-04-11T01:18:29.934Z,7.29
2023-04-11T01:23:34.448Z,7.01
2023-04-11T01:28:36.318Z,6.88
2023-04-11T01:33:41.638Z,6.63
2023-04-11T01:38:43.509Z,6.55
2023-04-11T01:43:45.950Z,6.54
2023-04-11T01:48:52.382Z,6.54
2023-04-11T01:53:54.541Z,6.45
2023-04-11T01:59:01.198Z,6.31
2023-04-11T02:04:02.992Z,6.31
2023-04-11T02:09:04.950Z,6.25
2023-04-11T02:14:06.668Z,6.14
2023-04-11T02:19:10.664Z,6.25
2023-04-11T02:24:12.429Z,6.26
2023-04-11T02:29:16.576Z,6.22
2023-04-11T02:34:23.213Z,6.12
2023-04-11T02:39:24.928Z,6.19
2023-04-11T02:44:30.957Z,6.27
2023-04-11T02:49:41.125Z,6.24
2023-04-11T02:54:44.468Z,6.25
2023-04-11T02:59:48.250Z,6.24
2023-04-11T03:04:53.960Z,6.12
2023-04-11T03:09:58.019Z,6.04
2023-04-11T03:15:03.046Z,5.96
2023-04-11T03:20:07.257Z,5.83
2023-04-11T03:25:09.656Z,5.77
2023-04-11T03:30:12.522Z,5.76
2023-04-11T03:35:18.734Z,5.76
2023-04-11T03:40:29.196Z,5.72
2023-04-11T03:45:45.123Z,5.74
2023-04-11T03:50:58.137Z,5.57
2023-04-11T03:56:08.808Z,5.45
2023-04-11T04:01:15.373Z,5.45
2023-04-11T04:06:20.310Z,5.53
2023-04-11T04:11:22.769Z,5.62
2023-04-11T04:16:29.492Z,5.71
2023-04-11T04:21:38.096Z,5.75
2023-04-11T04:26:42.366Z,5.77
2023-04-11T04:31:59.954Z,5.79
2023-04-11T04:37:21.461Z,5.80
2023-04-11T04:42:28.087Z,5.69
2023-04-11T04:47:37.507Z,5.54
2023-04-11T04:52:39.375Z,5.47
2023-04-11T04:57:42.794Z,5.48
2023-04-11T05:02:44.676Z,5.48
2023-04-11T05:07:48.416Z,5.54
2023-04-11T05:12:55.066Z,5.75
2023-04-11T05:17:59.475Z,5.96
2023-04-11T05:23:01.642Z,6.02
2023-04-11T05:28:06.644Z,5.99
2023-04-11T05:33:15.393Z,6.16
2023-04-11T05:38:21.406Z,6.24
2023-04-11T05:43:25.684Z,6.11
2023-04-11T05:48:29.943Z,6.09
2023-04-11T05:53:32.130Z,6.32
2023-04-11T05:58:34.664Z,6.24
2023-04-11T06:03:36.500Z,6.18
2023-04-11T06:08:38.664Z,6.18
2023-04-11T06:13:42.571Z,6.25
2023-04-11T06:18:46.662Z,6.26
2023-04-11T06:23:53.914Z,6.34
2023-04-11T06:28:56.023Z,6.35
2023-04-11T06:34:02.974Z,6.35
2023-04-11T06:39:07.256Z,6.39
2023-04-11T06:44:09.114Z,6.44
2023-04-11T06:49:11.905Z,6.51
2023-04-11T06:54:13.778Z,6.59
2023-04-11T06:59:21.815Z,6.73
2023-04-11T07:04:24.072Z,6.86
2023-04-11T07:09:28.283Z,6.93
2023-04-11T07:14:32.478Z,7.08
2023-04-11T07:19:34.270Z,7.15
2023-04-11T07:24:36.275Z,7.01
2023-04-11T07:29:38.059Z,6.91
2023-04-11T07:34:44.386Z,6.98
2023-04-11T07:39:46.309Z,6.77
2023-04-11T07:44:47.980Z,6.63
2023-04-11T07:49:50.223Z,6.76
2023-04-11T07:54:52.217Z,6.71
2023-04-11T07:59:56.976Z,6.76
2023-04-11T08:04:58.718Z,6.77
2023-04-11T08:10:03.058Z,6.60
2023-04-11T08:15:05.391Z,6.85
2023-04-11T08:20:14.076Z,6.78
2023-04-11T08:25:22.625Z,7.01
2023-04-11T08:30:25.074Z,6.81
2023-04-11T08:35:26.873Z,6.56
2023-04-11T08:40:28.675Z,6.37
2023-04-11T08:45:30.592Z,6.44
2023-04-11T08:50:35.156Z,6.39
2023-04-11T08:55:47.768Z,6.11
2023-04-11T09:00:54.086Z,6.13
2023-04-11T09:05:59.211Z,6.05
2023-04-11T09:11:03.921Z,6.12
2023-04-11T09:16:12.728Z,6.38
2023-04-11T09:21:15.759Z,6.55
2023-04-11T09:26:29.306Z,7.08
2023-04-11T09:31:48.621Z,7.05
2023-04-11T09:36:57.459Z,6.94
2023-04-11T09:41:59.279Z,7.09
2023-04-11T09:47:03.325Z,7.57
2023-04-11T09:52:05.401Z,7.51
2023-04-11T09:57:07.701Z,7.90
2023-04-11T10:02:14.197Z,8.11
2023-04-11T10:07:18.521Z,8.95
2023-04-11T10:12:32.546Z,9.89
2023-04-11T10:17:34.366Z,9.74
2023-04-11T10:22:44.390Z,9.87
2023-04-11T10:27:47.918Z,9.78
2023-04-11T10:33:12.159Z,9.98
2023-04-11T10:38:47.881Z,9.73
2023-04-11T10:43:52.041Z,8.85
2023-04-11T10:49:03.658Z,8.92
2023-04-11T10:54:25.018Z,9.03
2023-04-11T10:59:34.201Z,8.87
2023-04-11T11:04:39.300Z,8.89
2023-04-11T11:09:41.497Z,8.99
2023-04-11T11:14:45.136Z,8.74
2023-04-11T11:19:47.989Z,8.92
2023-04-11T11:24:52.666Z,9.47
2023-04-11T11:29:56.872Z,9.84
2023-04-11T11:34:58.925Z,10.14
2023-04-11T11:40:00.829Z,9.74
2023-04-11T11:45:16.131Z,8.24
2023-04-11T11:50:31.510Z,8.16
2023-04-11T11:55:33.438Z,8.47
2023-04-11T12:00:40.525Z,8.87
2023-04-11T12:05:44.720Z,9.88
2023-04-11T12:10:47.308Z,11.31
2023-04-11T12:15:57.223Z,12.95
2023-04-11T12:20:59.174Z,11.84
2023-04-11T12:26:03.599Z,11.00
2023-04-11T12:31:05.449Z,9.16
2023-04-11T12:36:09.749Z,8.33
2023-04-11T12:41:31.604Z,8.44
2023-04-11T12:46:33.978Z,9.33
2023-04-11T12:51:36.153Z,10.10
2023-04-11T12:56:37.896Z,10.51
2023-04-11T13:01:42.113Z,10.07
2023-04-11T13:06:47.567Z,9.45
2023-04-11T13:11:51.625Z,10.80
2023-04-11T13:16:56.093Z,10.07
2023-04-11T13:21:57.902Z,9.30
2023-04-11T13:27:02.029Z,8.57
2023-04-11T13:32:06.495Z,8.38
2023-04-11T13:37:15.751Z,9.86
2023-04-11T13:42:21.893Z,12.81
2023-04-11T13:47:25.907Z,14.37
2023-04-11T13:52:27.613Z,12.33
2023-04-11T13:57:31.856Z,11.09
2023-04-11T14:02:36.136Z,10.88
2023-04-11T14:07:40.404Z,12.00
2023-04-11T14:12:46.966Z,13.41
2023-04-11T14:17:48.664Z,12.20
2023-04-11T14:22:50.896Z,11.38
2023-04-11T14:27:57.377Z,10.88
2023-04-11T14:32:59.188Z,10.38
2023-04-11T14:38:01.857Z,10.39
2023-04-11T14:43:03.713Z,12.53
2023-04-11T14:48:10.131Z,11.31
2023-04-11T14:53:14.241Z,10.66
2023-04-11T14:58:16.868Z,10.92
2023-04-11T15:03:19.160Z,10.46
2023-04-11T15:08:23.371Z,10.50
2023-04-11T15:13:27.322Z,10.68
2023-04-11T15:18:30.770Z,14.82
2023-04-11T15:23:33.396Z,16.84
2023-04-11T15:28:39.376Z,15.29
2023-04-11T15:33:43.461Z,13.30
2023-04-11T15:38:45.662Z,15.53
2023-04-11T15:43:47.558Z,14.68
2023-04-11T15:48:51.555Z,13.52
2023-04-11T15:53:58.318Z,15.39
2023-04-11T15:59:00.234Z,14.35
2023-04-11T16:04:02.939Z,17.34
2023-04-11T16:09:05.302Z,16.35
2023-04-11T16:14:07.075Z,14.17
2023-04-11T16:19:08.767Z,14.18
2023-04-11T16:24:10.466Z,14.05
2023-04-11T16:29:14.705Z,14.28
2023-04-11T16:34:18.928Z,14.43
2023-04-11T16:39:20.662Z,13.07
2023-04-11T16:44:22.942Z,13.15
2023-04-11T16:49:24.751Z,12.86
2023-04-11T16:54:26.692Z,12.30
2023-04-11T16:59:30.946Z,11.93
2023-04-11T17:04:33.021Z,11.37
2023-04-11T17:09:38.562Z,10.99
2023-04-11T17:14:42.487Z,10.61
2023-04-11T17:19:47.044Z,10.41
2023-04-11T17:24:48.852Z,10.32
2023-04-11T17:29:53.110Z,10.19
2023-04-11T17:35:00.871Z,10.17
2023-04-11T17:40:15.306Z,10.08
2023-04-11T17:45:20.183Z,10.29
2023-04-11T17:50:21.959Z,9.73
2023-04-11T17:55:23.829Z,9.69
2023-04-11T18:00:26.586Z,9.36
2023-04-11T18:05:31.531Z,9.13
2023-04-11T18:10:33.807Z,9.23
2023-04-11T18:15:36.045Z,9.12
2023-04-11T18:20:40.976Z,8.87
2023-04-11T18:25:42.913Z,8.66
2023-04-11T18:30:44.650Z,8.42
2023-04-11T18:35:48.897Z,8.30
2023-04-11T18:40:55.134Z,8.25
2023-04-11T18:46:00.848Z,8.05
2023-04-11T18:51:03.681Z,7.90
2023-04-11T18:56:08.402Z,7.86
2023-04-11T19:01:16.426Z,7.67
2023-04-11T19:06:21.777Z,7.50
2023-04-11T19:11:26.242Z,7.47
2023-04-11T19:16:28.093Z,7.36
2023-04-11T19:21:32.078Z,7.12
2023-04-11T19:26:33.991Z,6.97
2023-04-11T19:31:36.157Z,6.78
2023-04-11T19:36:38.235Z,6.56
2023-04-11T19:41:45.123Z,6.39
2023-04-11T19:46:49.156Z,6.22
2023-04-11T19:51:51.350Z,6.05
2023-04-11T19:56:53.529Z,5.91
2023-04-11T20:02:01.475Z,5.83
2023-04-11T20:07:04.237Z,6.34
2023-04-11T20:12:08.290Z,5.90
2023-04-11T20:17:12.260Z,5.62
2023-04-11T20:22:18.437Z,5.39
2023-04-11T20:27:22.445Z,5.19
2023-04-11T20:32:24.736Z,5.04
2023-04-11T20:37:34.435Z,4.94
2023-04-11T20:42:42.033Z,4.82
2023-04-11T20:47:46.135Z,4.73
2023-04-11T20:52:51.390Z,4.61
2023-04-11T20:57:53.312Z,4.50
2023-04-11T21:02:55.278Z,4.40
2023-04-11T21:07:59.286Z,4.32
2023-04-11T21:13:01.081Z,4.25
2023-04-11T21:18:04.206Z,4.15
2023-04-11T21:23:12.066Z,4.13
2023-04-11T21:28:16.088Z,4.05
2023-04-11T21:33:20.343Z,3.98
2023-04-11T21:38:22.110Z,3.97
2023-04-11T21:43:24.411Z,3.97
2023-04-11T21:48:28.502Z,3.94
2023-04-11T21:53:30.331Z,3.85
2023-04-11T21:58:32.048Z,3.81
2023-04-11T22:03:40.225Z,3.74
2023-04-11T22:08:50.205Z,3.67
2023-04-11T22:13:52.727Z,3.65
2023-04-11T22:18:54.474Z,3.65
2023-04-11T22:23:57.254Z,3.64
2023-04-11T22:29:00.463Z,3.59
2023-04-11T22:34:04.671Z,3.62
2023-04-11T22:39:06.995Z,3.62
2023-04-11T22:44:10.821Z,3.67
2023-04-11T22:49:12.687Z,3.73
2023-04-11T22:54:16.681Z,3.81
2023-04-11T22:59:18.335Z,3.85
2023-04-11T23:04:23.381Z,4.00
2023-04-11T23:09:25.416Z,4.11
2023-04-11T23:14:32.036Z,4.16
2023-04-11T23:19:38.229Z,4.26
2023-04-11T23:24:40.089Z,4.40
2023-04-11T23:29:48.870Z,4.54
2023-04-11T23:34:56.094Z,4.64
2023-04-11T23:39:59.269Z,4.71
2023-04-11T23:45:00.945Z,4.72
2023-04-11T23:50:03.748Z,4.78
2023-04-11T23:55:06.203Z,4.82
